Meadow Lake, CO

11:53 PM MDT on April 24, 2017 (GMT -0600)
Meadow Lake

Weather History for KFLY - March, 2013

Change the Weather History Date:

Thursday, March 21, 2013

  Actual Average (KCOS) Record (KCOS)
Temperature  
Mean Temperature 40 °F -  
Max Temperature 54 °F 54 °F 75 °F (1995)
Min Temperature 27 °F 26 °F 1 °F (1914)
Degree Days  
Heating Degree Days 24    
Moisture  
Dew Point 24 °F    
Average Humidity 56    
Maximum Humidity 99    
Minimum Humidity 27    
Precipitation  
Precipitation 0.00 in - - ()
Sea Level Pressure  
Sea Level Pressure 29.69 in    
Wind  
Wind Speed 12 mph (NNW)    
Max Wind Speed 28 mph    
Max Gust Speed 33 mph    
Visibility 10 miles    
Events Rain    
Averages and records for this station are not official NWS values.
T = Trace of Precipitation, MM = Missing Value Source: NWS Daily Summary

Daily Weather History Graph

Daily Weather History Graph

Search for Another Location

Airport or City:

Trip Planner

Search our weather history database for the weather conditions in past years. The results will help you decide how hot, cold, wet, or windy it might be!

Date:

Astronomy

Mar. 21, 2013 Rise Set
Actual Time 6:59 AM MDT 7:11 PM MDT
Civil Twilight 6:33 AM MDT 7:38 PM MDT
Nautical Twilight 6:01 AM MDT 8:09 PM MDT
Astronomical Twilight 5:30 AM MDT 8:41 PM MDT
Moon 1:46 PM MDT (3/21) 3:20 AM MDT (3/21)
Length of Visible Light 13h 05m
Length of Day
12h 11m
Waxing Gibbous, 69% of the Moon is Illuminated
Mar 21
Waxing Gibbous
Mar 27
Full
Apr 2
Last Quarter
Apr 10
New
Apr 18
First Quarter

Hourly Weather History & Observations

Time (MDT) Temp. Windchill Dew Point Humidity Pressure Visibility Wind Dir Wind Speed Gust Speed Precip Events Conditions
12:15 AM 42.3 °F 35.1 °F 18.5 °F 39% 29.78 in 10.0 mi WNW 13.8 mph 19.6 mph N/A   Clear
12:55 AM 41.2 °F 34.1 °F 18.7 °F 40% 29.76 in 10.0 mi WNW 12.7 mph - N/A   Clear
1:15 AM 41.4 °F 34.0 °F 18.9 °F 41% 29.76 in 10.0 mi WNW 13.8 mph 19.6 mph N/A   Clear
1:35 AM 41.9 °F 34.0 °F 18.7 °F 39% 29.76 in 10.0 mi WNW 16.1 mph 19.6 mph N/A   Clear
1:55 AM 41.2 °F 33.7 °F 18.9 °F 41% 29.76 in 10.0 mi WNW 13.8 mph - N/A   Clear
2:15 AM 40.3 °F 32.6 °F 19.0 °F 43% 29.75 in 10.0 mi WNW 13.8 mph 19.6 mph N/A   Clear
2:35 AM 40.1 °F 33.6 °F 19.0 °F 43% 29.75 in 10.0 mi WNW 10.4 mph - N/A   Clear
2:55 AM 41.2 °F 33.0 °F 19.0 °F 41% 29.74 in 10.0 mi WNW 16.1 mph 19.6 mph N/A   Clear
3:15 AM 40.1 °F 32.7 °F 19.0 °F 43% 29.73 in 10.0 mi WNW 12.7 mph - N/A   Clear
3:35 AM 39.2 °F 32.5 °F 19.2 °F 45% 29.72 in 10.0 mi WNW 10.4 mph - N/A   Clear
3:55 AM 38.8 °F 32.1 °F 19.2 °F 45% 29.72 in 10.0 mi NW 10.4 mph - N/A   Clear
4:15 AM 39.7 °F 32.7 °F 19.2 °F 44% 29.71 in 10.0 mi NW 11.5 mph - N/A   Clear
4:55 AM 37.9 °F 32.1 °F 19.0 °F 47% 29.70 in 10.0 mi WNW 8.1 mph - N/A   Clear
5:15 AM 39.7 °F 33.7 °F 18.9 °F 43% 29.70 in 10.0 mi WNW 9.2 mph - N/A   Clear
5:35 AM 37.4 °F 30.8 °F 19.0 °F 48% 29.70 in 10.0 mi WNW 9.2 mph - N/A   Clear
5:55 AM 36.9 °F 30.7 °F 18.9 °F 48% 29.70 in 10.0 mi WNW 8.1 mph - N/A   Clear
6:15 AM 34.3 °F 28.4 °F 18.9 °F 53% 29.69 in 10.0 mi NW 6.9 mph - N/A   Clear
6:35 AM 34.7 °F 26.9 °F 19.0 °F 53% 29.69 in 10.0 mi NW 10.4 mph - N/A   Clear
6:55 AM 39.0 °F 32.3 °F 19.4 °F 45% 29.69 in 10.0 mi NW 10.4 mph - N/A   Clear
7:15 AM 41.2 °F 35.0 °F 19.6 °F 42% 29.67 in 10.0 mi WNW 10.4 mph - N/A   Scattered Clouds
7:35 AM 41.2 °F 35.5 °F 19.8 °F 42% 29.67 in 10.0 mi WNW 9.2 mph - N/A   Mostly Cloudy
7:55 AM 42.3 °F 36.8 °F 19.4 °F 40% 29.66 in 10.0 mi WNW 9.2 mph - N/A   Overcast
8:15 AM 42.8 °F 39.3 °F 19.2 °F 39% 29.66 in 10.0 mi West 5.8 mph - N/A   Overcast
8:35 AM 43.7 °F 40.3 °F 19.0 °F 37% 29.66 in 10.0 mi SSW 5.8 mph - N/A   Overcast
8:55 AM 41.2 °F 35.0 °F 21.4 °F 45% 29.64 in 10.0 mi SE 10.4 mph - N/A   Overcast
9:15 AM 43.7 °F 39.1 °F 18.9 °F 37% 29.64 in 10.0 mi SE 8.1 mph - N/A   Overcast
9:35 AM 42.4 °F 39.6 °F 19.4 °F 40% 29.65 in 10.0 mi South 4.6 mph - N/A   Overcast
9:55 AM 42.4 °F 40.7 °F 20.1 °F 41% 29.65 in 10.0 mi SSE 3.5 mph - N/A   Overcast
10:15 AM 43.3 °F 40.7 °F 19.4 °F 38% 29.66 in 10.0 mi South 4.6 mph - N/A   Overcast
10:35 AM 44.2 °F - 19.2 °F 37% 29.65 in 10.0 mi Calm Calm - N/A   Overcast
10:55 AM 45.1 °F 42.0 °F 19.9 °F 37% 29.66 in 10.0 mi ENE 5.8 mph - N/A   Mostly Cloudy
11:15 AM 46.6 °F - 25.9 °F 44% 29.63 in 10.0 mi NE 11.5 mph - N/A   Scattered Clouds
11:35 AM 48.2 °F - 27.1 °F 44% 29.63 in 10.0 mi ENE 6.9 mph - N/A   Clear
11:55 AM 50.7 °F - 25.7 °F 38% 29.62 in 10.0 mi SE 12.7 mph 17.3 mph N/A   Clear
12:15 PM 51.4 °F - 26.6 °F 38% 29.60 in 10.0 mi East 11.5 mph 19.6 mph N/A   Clear
12:35 PM 53.1 °F - 25.3 °F 34% 29.60 in 10.0 mi ESE 10.4 mph 20.7 mph N/A   Clear
12:55 PM 51.4 °F - 21.0 °F 30% 29.58 in 10.0 mi ESE 13.8 mph 25.3 mph N/A   Scattered Clouds
1:15 PM 52.2 °F - 22.6 °F 32% 29.58 in 10.0 mi SE 11.5 mph 18.4 mph N/A   Light Drizzle
1:35 PM 54.3 °F - 21.0 °F 27% 29.57 in 10.0 mi South 9.2 mph 18.4 mph N/A   Mostly Cloudy
1:55 PM 50.7 °F - 20.7 °F 31% 29.58 in 10.0 mi West 6.9 mph 18.4 mph N/A   Overcast
2:15 PM 52.9 °F - 23.9 °F 32% 29.57 in 10.0 mi SE 13.8 mph - N/A Rain Light Rain
2:55 PM 50.7 °F - 26.2 °F 39% 29.56 in 10.0 mi SE 19.6 mph - N/A   Overcast
3:15 PM 52.0 °F - 20.1 °F 29% 29.55 in 10.0 mi West 18.4 mph 25.3 mph N/A   Overcast
3:35 PM 54.5 °F - 21.6 °F 28% 29.57 in 10.0 mi NNW 27.6 mph 33.4 mph N/A   Mostly Cloudy
3:55 PM 42.1 °F 33.3 °F 31.3 °F 66% 29.60 in 7.0 mi North 19.6 mph 32.2 mph N/A Rain Light Rain
4:15 PM 41.5 °F 32.6 °F 30.6 °F 65% 29.62 in 10.0 mi North 19.6 mph 31.1 mph N/A   Overcast
4:35 PM 40.8 °F 32.6 °F 33.1 °F 74% 29.63 in 10.0 mi NNW 16.1 mph 31.1 mph N/A   Overcast
4:55 PM 44.2 °F 38.0 °F 32.0 °F 62% 29.63 in 10.0 mi North 12.7 mph 21.9 mph N/A   Scattered Clouds
5:15 PM 42.3 °F 36.8 °F 30.0 °F 62% 29.64 in 10.0 mi North 9.2 mph - N/A   Scattered Clouds
5:35 PM 45.3 °F 37.8 °F 28.4 °F 52% 29.64 in 10.0 mi NNE 18.4 mph 24.2 mph N/A   Mostly Cloudy
5:55 PM 43.7 °F 36.3 °F 29.3 °F 57% 29.66 in 10.0 mi NNE 16.1 mph 24.2 mph N/A   Scattered Clouds
6:15 PM 39.9 °F 30.8 °F 32.0 °F 73% 29.67 in 10.0 mi NNE 18.4 mph 29.9 mph N/A   Clear
6:35 PM 36.3 °F 26.8 °F 32.0 °F 84% 29.69 in 10.0 mi NNE 16.1 mph - N/A   Clear
6:55 PM 35.6 °F 25.5 °F 31.6 °F 85% 29.71 in 10.0 mi NNE 17.3 mph 23.0 mph N/A   Mostly Cloudy
7:15 PM 33.6 °F 22.6 °F 31.8 °F 93% 29.73 in 10.0 mi NNE 18.4 mph - N/A   Mostly Cloudy
7:35 PM 32.5 °F 21.9 °F 31.5 °F 96% 29.74 in 10.0 mi NNE 16.1 mph - N/A   Scattered Clouds
7:55 PM 32.2 °F 22.7 °F 31.3 °F 96% 29.75 in 10.0 mi North 12.7 mph - N/A   Scattered Clouds
8:15 PM 31.8 °F 24.6 °F 30.6 °F 95% 29.76 in 10.0 mi North 8.1 mph - N/A   Clear
8:35 PM 30.9 °F 24.3 °F 29.5 °F 94% 29.78 in 10.0 mi NNE 6.9 mph - N/A   Clear
8:55 PM 30.2 °F 23.4 °F 29.3 °F 96% 29.79 in 10.0 mi North 6.9 mph - N/A   Clear
9:15 PM 30.2 °F 24.3 °F 29.1 °F 96% 29.80 in 10.0 mi North 5.8 mph - N/A   Clear
9:35 PM 28.6 °F 23.5 °F 28.0 °F 98% 29.81 in 7.0 mi NNW 4.6 mph - N/A   Clear
9:55 PM 27.0 °F 18.7 °F 26.4 °F 98% 29.82 in 10.0 mi NE 8.1 mph - N/A   Clear
10:15 PM 27.7 °F 21.3 °F 27.5 °F 99% 29.82 in 3.0 mi North 5.8 mph - N/A   Scattered Clouds
10:35 PM 27.5 °F 21.1 °F 27.1 °F 99% 29.82 in 10.0 mi North 5.8 mph - N/A   Scattered Clouds
10:55 PM 27.9 °F 17.8 °F 26.4 °F 94% 29.81 in 10.0 mi North 11.5 mph - N/A   Clear
11:15 PM 28.4 °F 19.7 °F 25.7 °F 90% 29.81 in 10.0 mi North 9.2 mph - N/A   Clear
11:35 PM 28.4 °F 18.5 °F 24.4 °F 85% 29.81 in 10.0 mi North 11.5 mph - N/A   Clear
11:55 PM 30.2 °F 20.8 °F 22.5 °F 73% 29.81 in 10.0 mi North 11.5 mph - N/A   Clear